Time;durP1;ratioP1;P1;durP2;ratioP2;P2;SDS_P1;SDS_P2;PMS_P1;PMS_P2;Temp;Humidity;BMP_temperature;BMP_pressure;BME280_temperature;BME280_humidity;BME280_pressure;Samples;Min_cycle;Max_cycle;Signal;HPM_P1;HPM_P2
2023/01/13 04:56:15;;;;;;;31.48;21.62;;;;;;;5.35;84.53;100851.63;5603976;31;131468;-56
2023/01/13 04:59:18;;;;;;;33.50;20.20;;;;;;;5.35;84.53;100851.63;5582954;31;34147;-57
2023/01/13 05:02:20;;;;;;;27.13;18.90;;;;;;;4.91;85.56;100854.66;5582953;31;34175;-57
2023/01/13 05:05:22;;;;;;;30.10;20.33;;;;;;;4.89;86.93;100854.09;5568622;32;33665;-57
2023/01/13 05:08:25;;;;;;;27.50;19.20;;;;;;;4.94;85.45;100866.69;5563997;32;33620;-58
2023/01/13 05:18:10;;;;;;;32.47;20.02;;;;;;;4.76;87.03;100854.31;5563309;32;33943;-57
2023/01/13 05:25:20;;;;;;;33.00;21.20;;;;;;;4.93;85.27;100868.53;5563553;32;34073;-57
2023/01/13 05:27:57;;;;;;;25.90;19.02;;;;;;;4.98;85.54;100875.81;5563429;32;33609;-57
2023/01/13 05:31:00;;;;;;;31.90;20.77;;;;;;;5.02;84.91;100878.81;5563289;32;33603;-57
2023/01/13 05:34:03;;;;;;;31.05;20.77;;;;;;;5.10;84.08;100886.44;5563217;32;33727;-57
2023/01/13 05:37:06;;;;;;;33.67;19.55;;;;;;;5.00;84.08;100879.06;5563418;32;33547;-57
2023/01/13 05:43:33;;;;;;;28.42;19.95;;;;;;;5.05;84.24;100875.69;5563113;32;33676;-57
2023/01/13 05:46:36;;;;;;;28.25;20.45;;;;;;;5.08;82.95;100872.59;5563302;32;33749;-57
2023/01/13 05:49:40;;;;;;;28.10;21.20;;;;;;;5.11;83.31;100877.44;5562930;32;34168;-57
2023/01/13 05:52:43;;;;;;;31.87;22.85;;;;;;;5.06;83.54;100882.62;5563055;32;34296;-57
2023/01/13 05:55:45;;;;;;;30.73;21.25;;;;;;;4.94;98.86;100882.62;5566054;32;33988;-57
2023/01/13 05:58:47;;;;;;;32.28;22.25;;;;;;;4.85;88.90;100874.19;5580859;32;34372;-57
2023/01/13 06:01:50;;;;;;;34.00;21.52;;;;;;;4.96;88.17;100872.56;5578014;32;33585;-57
2023/01/13 06:04:52;;;;;;;29.08;21.55;;;;;;;4.67;90.42;100885.72;5580400;32;34393;-57
2023/01/13 06:07:59;;;;;;;28.05;21.25;;;;;;;4.76;86.50;100894.16;5568040;32;34426;-57
2023/01/13 06:11:01;;;;;;;25.60;20.12;;;;;;;4.88;84.10;100881.69;5569179;32;33590;-57
2023/01/13 06:14:03;;;;;;;31.02;21.40;;;;;;;4.85;91.22;100881.34;5567100;32;34425;-56
2023/01/13 06:17:11;;;;;;;30.27;21.30;;;;;;;4.86;84.49;100880.31;5569451;32;34404;-58
2023/01/13 06:20:14;;;;;;;29.27;20.88;;;;;;;4.71;94.83;100884.22;5569084;32;34500;-57
2023/01/13 06:23:17;;;;;;;29.35;20.92;;;;;;;4.79;85.73;100885.72;5568809;32;33723;-56
2023/01/13 06:26:23;;;;;;;29.33;20.30;;;;;;;4.71;84.54;100886.88;5568899;32;33691;-57
2023/01/13 06:29:26;;;;;;;27.67;19.83;;;;;;;4.64;88.23;100880.06;5568987;32;34330;-56
2023/01/13 06:32:34;;;;;;;28.00;20.65;;;;;;;4.59;86.61;100879.91;5568777;32;33753;-57
2023/01/13 06:35:39;;;;;;;27.58;20.20;;;;;;;4.78;84.18;100878.81;5567741;32;33799;-57
2023/01/13 06:38:46;;;;;;;32.10;19.73;;;;;;;4.77;85.27;100886.97;5568643;32;34264;-57
2023/01/13 06:45:13;;;;;;;26.62;19.02;;;;;;;4.91;84.37;100886.56;5568434;32;33652;-56
2023/01/13 06:48:17;;;;;;;25.05;17.23;;;;;;;4.64;86.03;100899.47;5568524;32;33804;-57
2023/01/13 06:51:19;;;;;;;21.27;16.70;;;;;;;4.99;84.96;100892.56;5567669;32;33725;-56
2023/01/13 06:54:22;;;;;;;20.12;16.67;;;;;;;4.87;86.09;100897.87;5567631;32;34309;-58
2023/01/13 06:57:24;;;;;;;22.37;16.60;;;;;;;4.91;86.27;100888.41;5566908;32;33981;-56
2023/01/13 07:00:26;;;;;;;23.20;16.20;;;;;;;5.05;85.50;100892.44;5566227;32;33786;-56
2023/01/13 07:03:29;;;;;;;22.48;16.77;;;;;;;5.12;84.85;100900.31;5568267;31;34347;-57
2023/01/13 07:06:31;;;;;;;22.98;16.50;;;;;;;5.21;85.41;100893.59;5566428;32;33252;-57
2023/01/13 07:09:33;;;;;;;22.73;17.37;;;;;;;5.21;84.80;100900.78;5568072;32;34381;-56
2023/01/13 07:16:03;;;;;;;21.17;16.77;;;;;;;5.22;84.92;100907.69;5568295;32;33728;-57
2023/01/13 07:19:09;;;;;;;21.92;17.15;;;;;;;5.35;84.04;100904.81;5558892;32;33335;-58
2023/01/13 07:22:13;;;;;;;23.60;16.98;;;;;;;5.39;83.92;100900.63;5567840;32;34356;-57
2023/01/13 07:25:15;;;;;;;27.30;19.20;;;;;;;5.21;84.84;100888.28;5568395;32;34354;-56
2023/01/13 07:28:17;;;;;;;27.73;19.58;;;;;;;5.18;85.71;100896.72;5568165;32;33638;-56
2023/01/13 07:31:20;;;;;;;30.90;20.75;;;;;;;5.25;84.69;100896.62;5568526;31;33593;-57
2023/01/13 07:34:22;;;;;;;28.17;20.65;;;;;;;5.25;84.52;100893.94;5567817;32;33350;-57
2023/01/13 07:37:25;;;;;;;27.55;20.37;;;;;;;5.32;84.09;100897.31;5553297;32;33567;-57
2023/01/13 07:40:27;;;;;;;28.83;20.45;;;;;;;5.26;84.57;100899.03;5548464;32;33184;-57
2023/01/13 07:43:32;;;;;;;26.10;20.45;;;;;;;5.34;84.28;100897.87;5547939;32;33925;-56
2023/01/13 07:46:34;;;;;;;26.92;20.02;;;;;;;5.47;84.26;100910.12;5548637;32;33610;-57
2023/01/13 07:49:37;;;;;;;26.90;18.08;;;;;;;5.44;84.06;100907.94;5548880;32;33242;-57
2023/01/13 07:52:39;;;;;;;24.00;17.55;;;;;;;5.37;85.19;100908.88;5548651;32;33499;-56
2023/01/13 07:55:42;;;;;;;22.33;16.80;;;;;;;5.54;84.37;100916.94;5548489;32;34855;-57
2023/01/13 07:58:49;;;;;;;27.67;16.70;;;;;;;5.56;84.31;100919.34;5547498;32;34257;-57
2023/01/13 08:01:52;;;;;;;22.00;15.32;;;;;;;5.54;84.85;100918.78;5548541;32;33499;-57
2023/01/13 08:04:54;;;;;;;18.15;14.90;;;;;;;5.63;85.01;100925.37;5548732;32;33260;-57
2023/01/13 08:07:57;;;;;;;21.73;15.10;;;;;;;5.54;87.87;100927.56;5548773;32;34374;-57
2023/01/13 08:11:04;;;;;;;18.95;13.73;;;;;;;5.77;84.89;100929.38;5548543;32;33156;-58
2023/01/13 08:14:06;;;;;;;18.60;14.18;;;;;;;5.86;86.48;100935.97;5547894;32;33726;-57
2023/01/13 08:17:09;;;;;;;23.67;15.40;;;;;;;5.79;86.08;100934.47;5548327;32;33635;-57
2023/01/13 08:20:11;;;;;;;17.90;14.02;;;;;;;5.75;84.79;100942.09;5548464;32;34319;-57
2023/01/13 08:23:14;;;;;;;19.52;14.48;;;;;;;5.88;92.23;100933.06;5548560;32;34431;-57
2023/01/13 08:26:17;;;;;;;19.77;13.77;;;;;;;5.84;84.69;100934.59;5563321;32;33957;-57
2023/01/13 08:29:19;;;;;;;21.62;13.95;;;;;;;5.89;94.29;100946.16;5565413;32;34003;-58
2023/01/13 08:32:21;;;;;;;20.12;13.73;;;;;;;5.90;87.80;100941.63;5566451;32;34381;-56
2023/01/13 08:35:24;;;;;;;17.05;13.35;;;;;;;5.91;86.77;100942.44;5559557;32;33613;-57
2023/01/13 08:38:26;;;;;;;17.25;12.73;;;;;;;6.00;85.55;100947.19;5561680;32;33661;-56
2023/01/13 08:45:07;;;;;;;17.95;13.68;;;;;;;6.10;88.56;100960.69;5487277;32;33266;-56
2023/01/13 08:48:10;;;;;;;16.73;12.82;;;;;;;6.00;82.80;100952.50;5551213;32;34030;-56
2023/01/13 08:51:12;;;;;;;17.92;13.20;;;;;;;6.00;81.77;100952.50;5565985;32;33546;-57
2023/01/13 08:54:16;;;;;;;23.33;13.57;;;;;;;6.20;88.10;100969.94;5565918;32;33597;-56
2023/01/13 08:57:18;;;;;;;15.70;12.63;;;;;;;6.31;93.91;100967.22;5561583;32;33283;-56
2023/01/13 09:00:21;;;;;;;16.00;12.30;;;;;;;6.22;81.37;100973.16;5564392;32;33610;-56
2023/01/13 09:03:23;;;;;;;20.55;13.55;;;;;;;6.21;84.12;100971.53;5563777;32;34535;-56
2023/01/13 09:06:25;;;;;;;18.25;13.88;;;;;;;6.03;82.75;100968.00;5564191;32;33666;-56
2023/01/13 09:09:28;;;;;;;15.10;12.55;;;;;;;5.96;80.60;100967.34;5567249;32;33307;-56
2023/01/13 09:15:55;;;;;;;16.73;13.20;;;;;;;5.91;83.85;100969.84;5564269;32;33905;-56
2023/01/13 09:19:00;;;;;;;16.85;13.00;;;;;;;5.92;81.50;100968.78;5557032;32;33596;-56
2023/01/13 09:22:03;;;;;;;18.85;14.35;;;;;;;5.94;81.08;100960.62;5565945;32;34455;-56
2023/01/13 09:25:05;;;;;;;18.40;13.50;;;;;;;6.08;100.00;100960.09;5566178;32;34287;-56
2023/01/13 09:28:08;;;;;;;18.40;14.65;;;;;;;6.08;82.39;100959.31;5565023;32;33437;-56
2023/01/13 09:31:10;;;;;;;18.27;14.05;;;;;;;5.98;80.98;100953.78;5566616;32;33610;-56
2023/01/13 09:37:38;;;;;;;18.40;14.70;;;;;;;5.94;90.17;100961.44;5560537;32;33271;-56
2023/01/13 09:40:42;;;;;;;21.27;15.52;;;;;;;5.94;83.94;100953.44;5564431;32;33923;-56
2023/01/13 09:43:55;;;;;;;21.87;15.30;;;;;;;5.89;81.88;100954.12;5569019;32;34572;-57
2023/01/13 09:47:03;;;;;;;18.95;15.35;;;;;;;5.84;83.51;100954.00;5568072;32;34297;-56
2023/01/13 09:50:29;;;;;;;19.58;14.65;;;;;;;5.93;84.47;100940.34;5569564;32;33753;-56
2023/01/13 09:53:56;;;;;;;24.77;15.23;;;;;;;6.04;85.97;100943.00;5568628;32;33705;-55
2023/01/13 09:56:58;;;;;;;21.17;15.63;;;;;;;6.04;85.53;100945.66;5568688;32;33924;-57
2023/01/13 10:00:02;;;;;;;22.95;15.93;;;;;;;5.92;83.17;100942.19;5564526;32;33594;-57
2023/01/13 10:03:24;;;;;;;22.58;17.15;;;;;;;5.88;82.79;100938.37;5568081;32;34210;-56
2023/01/13 10:06:37;;;;;;;24.77;18.45;;;;;;;5.81;83.24;100935.84;5563255;32;33623;-57
2023/01/13 10:09:52;;;;;;;24.60;17.20;;;;;;;5.85;85.45;100944.16;5561249;32;33813;-56
2023/01/13 10:13:13;;;;;;;34.70;17.37;;;;;;;5.95;90.22;100938.28;5561091;32;34472;-56
2023/01/13 10:16:27;;;;;;;22.87;17.05;;;;;;;6.02;86.40;100936.28;5566592;32;33720;-56
2023/01/13 10:20:13;;;;;;;23.52;17.33;;;;;;;6.09;97.34;100935.13;5568196;32;33794;-57
2023/01/13 10:23:49;;;;;;;23.10;16.95;;;;;;;6.06;86.19;100937.44;5526152;32;33713;-56
2023/01/13 10:27:15;;;;;;;22.20;15.43;;;;;;;6.12;83.98;100939.16;5532014;32;34046;-56
2023/01/13 10:30:30;;;;;;;24.10;16.90;;;;;;;6.05;84.50;100935.81;5564244;32;32198;-56
2023/01/13 10:33:32;;;;;;;24.58;17.30;;;;;;;6.20;86.35;100933.47;5566038;32;33442;-56
2023/01/13 10:36:34;;;;;;;26.05;18.05;;;;;;;6.04;83.68;100940.34;5566910;32;33197;-56
2023/01/13 10:39:43;;;;;;;36.88;19.58;;;;;;;6.10;88.47;100938.59;5564188;32;33241;-57
2023/01/13 10:42:45;;;;;;;28.95;17.65;;;;;;;6.17;88.56;100936.59;5566982;32;33689;-56
2023/01/13 10:45:57;;;;;;;25.15;16.80;;;;;;;6.57;100.00;100923.22;5567645;32;33652;-56
2023/01/13 10:49:02;;;;;;;22.83;16.65;;;;;;;6.69;92.28;100928.50;5567303;32;33720;-57
2023/01/13 10:52:25;;;;;;;26.62;17.95;;;;;;;6.40;86.16;100908.25;5557094;32;33584;-56
2023/01/13 10:55:33;;;;;;;26.90;18.30;;;;;;;6.69;93.55;100915.16;5564574;32;34314;-57
2023/01/13 10:58:35;;;;;;;30.58;18.65;;;;;;;6.51;89.06;100912.72;5568323;32;34092;-56
2023/01/13 11:01:41;;;;;;;28.83;18.37;;;;;;;6.39;85.69;100896.81;5567496;32;33735;-58
2023/01/13 11:05:01;;;;;;;27.80;17.62;;;;;;;6.23;83.92;100885.06;5549819;32;33485;-57
2023/01/13 11:08:04;;;;;;;25.35;18.85;;;;;;;6.19;85.41;100886.59;5568573;32;33970;-58
2023/01/13 11:11:25;;;;;;;24.77;18.77;;;;;;;6.16;82.94;100886.25;5567827;32;33903;-56
2023/01/13 11:14:40;;;;;;;27.83;18.62;;;;;;;6.10;87.38;100885.34;5568141;32;34492;-56
2023/01/13 11:17:59;;;;;;;25.00;17.42;;;;;;;6.31;85.29;100876.69;5563796;32;33738;-59
2023/01/13 11:21:05;;;;;;;25.58;18.90;;;;;;;6.33;91.13;100868.47;5565430;32;34363;-57
2023/01/13 11:24:10;;;;;;;26.00;18.92;;;;;;;6.21;82.56;100873.03;5568028;32;33884;-56
2023/01/13 11:27:36;;;;;;;30.27;20.52;;;;;;;6.17;84.88;100867.37;5567758;32;34381;-56
2023/01/13 11:30:55;;;;;;;25.92;18.33;;;;;;;6.20;88.78;100864.25;5565072;32;34355;-57
2023/01/13 11:34:03;;;;;;;26.75;19.77;;;;;;;6.17;86.37;100858.59;5554374;32;34427;-58
2023/01/13 11:37:20;;;;;;;31.27;20.10;;;;;;;6.15;81.93;100856.16;5568035;32;33652;-57
2023/01/13 11:40:48;;;;;;;28.70;18.98;;;;;;;6.15;84.24;100858.00;5568480;32;33587;-56
2023/01/13 11:43:58;;;;;;;30.33;20.30;;;;;;;6.15;85.21;100855.34;5565145;32;33459;-56
2023/01/13 11:47:00;;;;;;;31.35;20.00;;;;;;;6.06;84.07;100861.06;5564132;32;34027;-58
2023/01/13 11:50:06;;;;;;;30.27;19.33;;;;;;;6.04;83.69;100851.69;5566997;32;33800;-56
2023/01/13 11:53:25;;;;;;;30.70;19.33;;;;;;;6.14;87.65;100848.41;5566241;32;34299;-57
2023/01/13 11:56:51;;;;;;;30.02;21.00;;;;;;;6.32;88.50;100842.88;5546371;32;33631;-57
2023/01/13 12:00:02;;;;;;;32.20;20.50;;;;;;;6.32;83.96;100832.22;5555204;32;33249;-56
2023/01/13 12:03:22;;;;;;;31.35;19.92;;;;;;;6.43;85.21;100828.69;5564799;32;34210;-57
2023/01/13 12:06:34;;;;;;;28.12;20.90;;;;;;;6.64;88.93;100821.03;5564529;32;33792;-57
2023/01/13 12:09:44;;;;;;;54.22;38.33;;;;;;;6.53;82.87;100822.72;5566802;32;35213;-57
2023/01/13 12:13:06;;;;;;;46.00;37.97;;;;;;;6.43;84.08;100809.25;5548746;32;33097;-57
2023/01/13 12:16:25;;;;;;;29.92;22.35;;;;;;;6.29;88.63;100790.94;5559583;32;34416;-57
2023/01/13 12:19:29;;;;;;;34.92;22.87;;;;;;;6.42;85.11;100787.13;5567523;32;33749;-57
2023/01/13 12:22:32;;;;;;;31.50;22.50;;;;;;;6.32;83.51;100774.47;5567760;32;34398;-57
2023/01/13 12:25:49;;;;;;;39.50;30.52;;;;;;;6.44;87.47;100777.03;5567354;32;33401;-57
2023/01/13 12:29:27;;;;;;;33.58;22.25;;;;;;;6.56;83.24;100783.09;5565492;32;33715;-57
2023/01/13 12:32:36;;;;;;;31.37;21.85;;;;;;;6.24;84.04;100774.84;5557595;31;33850;-56
2023/01/13 12:35:48;;;;;;;30.37;23.83;;;;;;;6.30;83.05;100775.75;5567526;32;33689;-58
2023/01/13 12:38:58;;;;;;;32.85;22.25;;;;;;;6.35;90.77;100783.81;5562567;32;33634;-58
2023/01/13 12:45:36;;;;;;;;;;;;;;;6.35;83.45;100799.78;5553327;32;33421;-56
2023/01/13 12:48:53;;;;;;;35.58;25.05;;;;;;;6.39;82.89;100786.78;5567419;32;34086;-57
2023/01/13 12:51:55;;;;;;;36.90;23.92;;;;;;;6.23;84.57;100794.56;5567955;32;35042;-56
2023/01/13 12:55:01;;;;;;;39.30;26.17;;;;;;;6.37;95.32;100787.06;5567371;32;33917;-57
2023/01/13 12:58:07;;;;;;;36.00;24.80;;;;;;;6.52;89.29;100784.62;5560628;32;33211;-57
2023/01/13 13:01:13;;;;;;;37.47;22.65;;;;;;;6.54;87.00;100792.38;5558025;32;34391;-57
2023/01/13 13:04:50;;;;;;;35.08;26.87;;;;;;;6.62;94.47;100775.97;5557798;32;33739;-56
2023/01/13 13:08:06;;;;;;;32.88;22.40;;;;;;;6.66;96.37;100771.78;5554910;32;34404;-57
2023/01/13 13:14:54;;;;;;;34.13;23.25;;;;;;;6.79;90.77;100786.63;5565697;32;33950;-56
2023/01/13 13:18:15;;;;;;;33.33;23.95;;;;;;;6.92;96.07;100782.78;5564857;32;33619;-57
2023/01/13 13:21:18;;;;;;;31.17;23.05;;;;;;;6.78;83.53;100787.66;5553614;32;32429;-57
2023/01/13 13:24:20;;;;;;;34.35;24.23;;;;;;;6.86;82.93;100794.44;5567378;32;33682;-57
2023/01/13 13:27:47;;;;;;;33.10;23.12;;;;;;;6.63;82.90;100798.09;5564755;32;33728;-56
2023/01/13 13:31:04;;;;;;;29.77;22.58;;;;;;;6.73;84.08;100787.59;5564851;32;33729;-57
2023/01/13 13:34:28;;;;;;;38.72;24.95;;;;;;;7.19;90.77;100791.69;5565315;32;33774;-56
2023/01/13 13:48:25;;;;;;;31.98;21.80;;;;;;;7.52;85.23;100781.97;5551666;32;34026;-57
2023/01/13 13:51:36;;;;;;;30.67;20.88;;;;;;;7.32;82.59;100793.19;5562192;32;34455;-57
2023/01/13 13:54:46;;;;;;;28.40;21.58;;;;;;;7.17;81.61;100788.47;5560536;32;33620;-57
2023/01/13 13:57:51;;;;;;;32.97;22.30;;;;;;;7.02;96.65;100794.41;5563980;32;33793;-57
2023/01/13 14:00:55;;;;;;;30.45;21.75;;;;;;;7.01;85.82;100795.44;5560548;32;33850;-58
2023/01/13 14:04:20;;;;;;;29.08;21.98;;;;;;;7.13;83.70;100797.22;5566389;31;33733;-57
2023/01/13 14:07:22;;;;;;;32.05;21.37;;;;;;;7.06;83.47;100797.38;5558776;32;33897;-56
2023/01/13 14:10:35;;;;;;;30.52;21.50;;;;;;;7.04;84.15;100800.28;5562569;32;33714;-57
2023/01/13 14:13:37;;;;;;;31.95;20.90;;;;;;;7.09;85.13;100804.91;5569227;32;34472;-56
2023/01/13 14:16:40;;;;;;;36.28;22.17;;;;;;;7.15;83.97;100808.41;5569504;32;33729;-57
2023/01/13 14:19:46;;;;;;;31.58;21.40;;;;;;;7.28;83.08;100805.38;5563042;32;33957;-57
2023/01/13 14:22:52;;;;;;;28.62;19.90;;;;;;;7.25;82.52;100805.88;5569383;32;34081;-57
2023/01/13 14:25:59;;;;;;;30.00;20.85;;;;;;;7.19;83.92;100807.69;5569645;32;34389;-58
2023/01/13 14:29:03;;;;;;;29.08;20.48;;;;;;;7.18;91.42;100811.41;5568744;32;33140;-57
2023/01/13 14:32:06;;;;;;;34.33;21.23;;;;;;;7.22;84.41;100815.19;5561467;32;33710;-57
2023/01/13 14:35:09;;;;;;;29.55;19.25;;;;;;;7.26;85.57;100808.31;5569437;32;33681;-57
2023/01/13 14:38:15;;;;;;;30.08;19.37;;;;;;;7.45;95.02;100816.00;5568966;32;34487;-57
2023/01/13 14:41:21;;;;;;;31.92;19.95;;;;;;;7.38;84.97;100810.84;5566766;32;33813;-58
2023/01/13 14:44:29;;;;;;;32.75;21.25;;;;;;;7.30;85.82;100805.97;5569400;32;33476;-57
2023/01/13 14:47:32;;;;;;;29.12;22.98;;;;;;;7.35;85.99;100822.03;5569396;32;33485;-56
2023/01/13 14:50:35;;;;;;;29.48;18.15;;;;;;;7.35;85.47;100822.03;5569089;32;33714;-58
2023/01/13 14:53:45;;;;;;;26.00;18.70;;;;;;;7.28;85.74;100814.22;5569430;32;33673;-57
2023/01/13 14:56:54;;;;;;;33.22;23.67;;;;;;;7.36;85.86;100812.16;5568584;32;34937;-56
2023/01/13 15:00:14;;;;;;;29.52;20.30;;;;;;;7.41;91.59;100812.22;5567498;32;34076;-56
2023/01/13 15:03:19;;;;;;;26.85;18.15;;;;;;;7.77;92.60;100816.91;5553112;32;33819;-57
2023/01/13 15:06:24;;;;;;;32.03;24.63;;;;;;;7.75;94.25;100819.03;5564795;32;33893;-56
2023/01/13 15:09:32;;;;;;;35.17;22.48;;;;;;;7.56;92.81;100809.75;5561320;32;33367;-57
2023/01/13 15:12:39;;;;;;;37.05;22.55;;;;;;;7.63;88.90;100815.69;5562865;32;34448;-56
2023/01/13 15:15:41;;;;;;;29.67;19.83;;;;;;;7.46;88.45;100814.97;5561744;32;34357;-57
2023/01/13 15:18:44;;;;;;;27.75;19.98;;;;;;;7.37;91.97;100814.56;5549493;32;34411;-57
2023/01/13 15:21:46;;;;;;;29.67;20.23;;;;;;;7.35;96.43;100807.88;5555972;32;33926;-56
2023/01/13 15:24:49;;;;;;;30.88;21.27;;;;;;;7.47;97.69;100808.56;5569398;32;33659;-57
2023/01/13 15:27:51;;;;;;;34.90;21.45;;;;;;;7.45;92.53;100808.81;5568086;32;33793;-57
2023/01/13 15:30:59;;;;;;;34.10;21.10;;;;;;;7.45;87.45;100803.50;5568886;32;34332;-57
2023/01/13 15:34:01;;;;;;;30.48;20.15;;;;;;;7.42;86.79;100809.31;5567444;32;34443;-58
2023/01/13 15:37:04;;;;;;;35.38;22.92;;;;;;;7.40;86.47;100816.75;5549542;32;34378;-57
2023/01/13 15:40:22;;;;;;;34.78;22.05;;;;;;;7.45;95.02;100819.50;5567084;32;33680;-58
2023/01/13 15:46:46;;;;;;;37.63;23.40;;;;;;;7.37;90.73;100816.44;5568963;32;33437;-56
2023/01/13 15:49:48;;;;;;;31.30;20.60;;;;;;;7.51;94.96;100818.47;5568814;32;34347;-57
2023/01/13 15:52:50;;;;;;;35.83;22.67;;;;;;;7.51;94.48;100807.00;5568710;32;33811;-57
2023/01/13 15:55:56;;;;;;;33.90;22.52;;;;;;;7.58;88.19;100812.94;5564859;32;33678;-57
2023/01/13 15:58:58;;;;;;;29.52;21.48;;;;;;;7.46;87.37;100831.75;5558712;32;33791;-58
2023/01/13 16:02:01;;;;;;;39.30;23.10;;;;;;;7.43;91.93;100826.13;5569076;32;33700;-57
2023/01/13 16:05:04;;;;;;;40.85;28.42;;;;;;;7.37;87.60;100824.44;5568773;32;34019;-57
2023/01/13 16:08:17;;;;;;;34.55;23.65;;;;;;;7.41;93.64;100830.88;5568339;32;33685;-57
2023/01/13 16:11:20;;;;;;;31.87;21.70;;;;;;;7.33;87.19;100829.47;5568632;31;34587;-57
2023/01/13 16:14:22;;;;;;;30.60;20.50;;;;;;;7.33;86.41;100826.81;5568892;32;34324;-57
2023/01/13 16:17:29;;;;;;;34.15;22.00;;;;;;;7.40;97.78;100831.94;5568098;32;34191;-57
2023/01/13 16:20:31;;;;;;;33.50;22.20;;;;;;;7.35;91.86;100824.69;5568406;32;34428;-57
2023/01/13 16:23:33;;;;;;;34.45;21.45;;;;;;;7.35;91.23;100830.03;5568860;32;34498;-57
2023/01/13 16:26:37;;;;;;;32.95;22.05;;;;;;;7.50;85.37;100827.53;5565550;32;34150;-58
2023/01/13 16:29:40;;;;;;;29.35;21.25;;;;;;;7.56;90.87;100824.94;5564120;32;34361;-56
2023/01/13 16:32:43;;;;;;;34.17;24.75;;;;;;;7.35;86.47;100827.37;5568365;32;33739;-56
2023/01/13 16:35:45;;;;;;;29.70;20.35;;;;;;;7.24;88.58;100822.94;5567655;32;33929;-57
